sensor_id;sensor_type;location;lat;lon;timestamp;P1;durP1;ratioP1;P2;durP2;ratioP2
11269;SDS011;5692;48.956;9.200;2024-02-26T00:00:40;341.58;;;325.27;;
11269;SDS011;5692;48.956;9.200;2024-02-26T00:03:07;350.80;;;334.05;;
11269;SDS011;5692;48.956;9.200;2024-02-26T00:05:33;355.88;;;338.88;;
11269;SDS011;5692;48.956;9.200;2024-02-26T00:07:59;345.60;;;329.10;;
11269;SDS011;5692;48.956;9.200;2024-02-26T00:10:25;343.27;;;326.88;;
11269;SDS011;5692;48.956;9.200;2024-02-26T00:12:51;338.88;;;322.67;;
11269;SDS011;5692;48.956;9.200;2024-02-26T00:15:18;351.60;;;334.80;;
11269;SDS011;5692;48.956;9.200;2024-02-26T00:17:47;347.48;;;330.88;;
11269;SDS011;5692;48.956;9.200;2024-02-26T00:20:15;340.65;;;324.40;;
11269;SDS011;5692;48.956;9.200;2024-02-26T00:22:41;342.33;;;325.98;;
11269;SDS011;5692;48.956;9.200;2024-02-26T00:25:08;341.73;;;325.42;;
11269;SDS011;5692;48.956;9.200;2024-02-26T00:27:34;343.27;;;326.88;;
11269;SDS011;5692;48.956;9.200;2024-02-26T00:30:00;349.17;;;332.50;;
11269;SDS011;5692;48.956;9.200;2024-02-26T00:32:26;331.38;;;315.52;;
11269;SDS011;5692;48.956;9.200;2024-02-26T00:34:55;309.20;;;294.40;;
11269;SDS011;5692;48.956;9.200;2024-02-26T00:37:21;326.00;;;310.42;;
11269;SDS011;5692;48.956;9.200;2024-02-26T00:39:47;334.23;;;318.25;;
11269;SDS011;5692;48.956;9.200;2024-02-26T00:42:13;330.95;;;315.15;;
11269;SDS011;5692;48.956;9.200;2024-02-26T00:44:39;329.58;;;313.83;;
11269;SDS011;5692;48.956;9.200;2024-02-26T00:47:05;329.40;;;313.70;;
11269;SDS011;5692;48.956;9.200;2024-02-26T00:49:32;336.35;;;320.27;;
11269;SDS011;5692;48.956;9.200;2024-02-26T00:51:59;323.83;;;308.33;;
11269;SDS011;5692;48.956;9.200;2024-02-26T00:54:25;332.77;;;316.88;;
11269;SDS011;5692;48.956;9.200;2024-02-26T00:56:51;316.10;;;301.00;;
11269;SDS011;5692;48.956;9.200;2024-02-26T00:59:17;339.15;;;322.95;;
11269;SDS011;5692;48.956;9.200;2024-02-26T01:01:44;339.13;;;322.92;;
11269;SDS011;5692;48.956;9.200;2024-02-26T01:04:10;322.85;;;307.45;;
11269;SDS011;5692;48.956;9.200;2024-02-26T01:06:37;333.35;;;317.45;;
11269;SDS011;5692;48.956;9.200;2024-02-26T01:09:03;328.15;;;312.48;;
11269;SDS011;5692;48.956;9.200;2024-02-26T01:11:35;335.10;;;319.10;;
11269;SDS011;5692;48.956;9.200;2024-02-26T01:14:07;331.60;;;315.80;;
11269;SDS011;5692;48.956;9.200;2024-02-26T01:16:33;326.10;;;310.52;;
11269;SDS011;5692;48.956;9.200;2024-02-26T01:18:59;333.43;;;317.50;;
11269;SDS011;5692;48.956;9.200;2024-02-26T01:21:24;329.30;;;313.57;;
11269;SDS011;5692;48.956;9.200;2024-02-26T01:23:54;330.88;;;315.05;;
11269;SDS011;5692;48.956;9.200;2024-02-26T01:26:22;327.75;;;312.10;;
11269;SDS011;5692;48.956;9.200;2024-02-26T01:28:51;308.02;;;293.30;;
11269;SDS011;5692;48.956;9.200;2024-02-26T01:31:20;306.00;;;291.38;;
11269;SDS011;5692;48.956;9.200;2024-02-26T01:33:46;313.77;;;298.77;;
11269;SDS011;5692;48.956;9.200;2024-02-26T01:36:11;321.43;;;306.07;;
11269;SDS011;5692;48.956;9.200;2024-02-26T01:38:37;317.13;;;301.97;;
11269;SDS011;5692;48.956;9.200;2024-02-26T01:41:13;308.58;;;293.83;;
11269;SDS011;5692;48.956;9.200;2024-02-26T01:43:39;322.10;;;306.70;;
11269;SDS011;5692;48.956;9.200;2024-02-26T01:46:05;323.55;;;308.10;;
11269;SDS011;5692;48.956;9.200;2024-02-26T01:48:31;317.27;;;302.13;;
11269;SDS011;5692;48.956;9.200;2024-02-26T01:50:58;310.00;;;295.20;;
11269;SDS011;5692;48.956;9.200;2024-02-26T01:53:24;304.23;;;289.67;;
11269;SDS011;5692;48.956;9.200;2024-02-26T01:55:50;318.42;;;303.20;;
11269;SDS011;5692;48.956;9.200;2024-02-26T01:58:31;302.17;;;287.73;;
11269;SDS011;5692;48.956;9.200;2024-02-26T02:00:58;328.85;;;313.15;;
11269;SDS011;5692;48.956;9.200;2024-02-26T02:03:24;319.10;;;303.85;;
11269;SDS011;5692;48.956;9.200;2024-02-26T02:05:51;326.77;;;311.17;;
11269;SDS011;5692;48.956;9.200;2024-02-26T02:08:19;306.73;;;292.08;;
11269;SDS011;5692;48.956;9.200;2024-02-26T02:10:45;309.85;;;295.05;;
11269;SDS011;5692;48.956;9.200;2024-02-26T02:13:14;298.42;;;284.17;;
11269;SDS011;5692;48.956;9.200;2024-02-26T02:15:40;290.65;;;276.75;;
11269;SDS011;5692;48.956;9.200;2024-02-26T02:18:06;300.23;;;285.88;;
11269;SDS011;5692;48.956;9.200;2024-02-26T02:20:32;297.83;;;283.63;;
11269;SDS011;5692;48.956;9.200;2024-02-26T02:23:02;309.73;;;294.92;;
11269;SDS011;5692;48.956;9.200;2024-02-26T02:25:28;328.45;;;312.77;;
11269;SDS011;5692;48.956;9.200;2024-02-26T02:27:54;298.55;;;284.25;;
11269;SDS011;5692;48.956;9.200;2024-02-26T02:30:24;305.40;;;290.83;;
11269;SDS011;5692;48.956;9.200;2024-02-26T02:32:51;286.05;;;272.38;;
11269;SDS011;5692;48.956;9.200;2024-02-26T02:35:20;307.92;;;293.23;;
11269;SDS011;5692;48.956;9.200;2024-02-26T02:37:46;308.98;;;294.23;;
11269;SDS011;5692;48.956;9.200;2024-02-26T02:40:12;302.40;;;287.95;;
11269;SDS011;5692;48.956;9.200;2024-02-26T02:42:38;309.58;;;294.77;;
11269;SDS011;5692;48.956;9.200;2024-02-26T02:45:04;299.90;;;285.58;;
11269;SDS011;5692;48.956;9.200;2024-02-26T02:47:30;299.10;;;284.80;;
11269;SDS011;5692;48.956;9.200;2024-02-26T02:49:56;312.70;;;297.80;;
11269;SDS011;5692;48.956;9.200;2024-02-26T02:52:23;282.85;;;269.33;;
11269;SDS011;5692;48.956;9.200;2024-02-26T02:54:49;304.38;;;289.83;;
11269;SDS011;5692;48.956;9.200;2024-02-26T02:57:15;291.85;;;277.90;;
11269;SDS011;5692;48.956;9.200;2024-02-26T02:59:41;313.73;;;298.73;;
11269;SDS011;5692;48.956;9.200;2024-02-26T03:02:07;299.10;;;284.80;;
11269;SDS011;5692;48.956;9.200;2024-02-26T03:04:33;300.48;;;286.10;;
11269;SDS011;5692;48.956;9.200;2024-02-26T03:07:02;290.15;;;276.30;;
11269;SDS011;5692;48.956;9.200;2024-02-26T03:09:28;292.40;;;278.40;;
11269;SDS011;5692;48.956;9.200;2024-02-26T03:11:54;290.52;;;276.63;;
11269;SDS011;5692;48.956;9.200;2024-02-26T03:14:21;300.30;;;285.95;;
11269;SDS011;5692;48.956;9.200;2024-02-26T03:16:47;293.08;;;279.08;;
11269;SDS011;5692;48.956;9.200;2024-02-26T03:19:16;303.10;;;288.60;;
11269;SDS011;5692;48.956;9.200;2024-02-26T03:21:42;308.08;;;293.35;;
11269;SDS011;5692;48.956;9.200;2024-02-26T03:24:08;303.77;;;289.27;;
11269;SDS011;5692;48.956;9.200;2024-02-26T03:26:35;303.80;;;289.30;;
11269;SDS011;5692;48.956;9.200;2024-02-26T03:29:02;301.77;;;287.38;;
11269;SDS011;5692;48.956;9.200;2024-02-26T03:31:31;289.08;;;275.27;;
11269;SDS011;5692;48.956;9.200;2024-02-26T03:33:57;311.95;;;297.05;;
11269;SDS011;5692;48.956;9.200;2024-02-26T03:36:23;313.15;;;298.17;;
11269;SDS011;5692;48.956;9.200;2024-02-26T03:38:50;306.63;;;291.98;;
11269;SDS011;5692;48.956;9.200;2024-02-26T03:41:18;309.33;;;294.52;;
11269;SDS011;5692;48.956;9.200;2024-02-26T03:43:46;291.75;;;277.80;;
11269;SDS011;5692;48.956;9.200;2024-02-26T03:46:15;293.30;;;279.30;;
11269;SDS011;5692;48.956;9.200;2024-02-26T03:48:41;295.13;;;281.02;;
11269;SDS011;5692;48.956;9.200;2024-02-26T03:51:08;303.77;;;289.27;;
11269;SDS011;5692;48.956;9.200;2024-02-26T03:53:37;298.33;;;284.08;;
11269;SDS011;5692;48.956;9.200;2024-02-26T03:56:04;309.13;;;294.33;;
11269;SDS011;5692;48.956;9.200;2024-02-26T03:58:30;308.20;;;293.48;;
11269;SDS011;5692;48.956;9.200;2024-02-26T04:00:56;314.48;;;299.48;;
11269;SDS011;5692;48.956;9.200;2024-02-26T04:03:26;313.10;;;298.13;;
11269;SDS011;5692;48.956;9.200;2024-02-26T04:05:52;301.63;;;287.23;;
11269;SDS011;5692;48.956;9.200;2024-02-26T04:08:18;301.00;;;286.63;;
11269;SDS011;5692;48.956;9.200;2024-02-26T04:10:44;301.63;;;287.23;;
11269;SDS011;5692;48.956;9.200;2024-02-26T04:13:13;317.15;;;302.00;;
11269;SDS011;5692;48.956;9.200;2024-02-26T04:15:39;313.38;;;298.40;;
11269;SDS011;5692;48.956;9.200;2024-02-26T04:18:05;318.70;;;303.50;;
11269;SDS011;5692;48.956;9.200;2024-02-26T04:20:34;292.90;;;278.90;;
11269;SDS011;5692;48.956;9.200;2024-02-26T04:23:02;299.17;;;284.88;;
11269;SDS011;5692;48.956;9.200;2024-02-26T04:25:28;309.83;;;295.02;;
11269;SDS011;5692;48.956;9.200;2024-02-26T04:27:54;317.00;;;301.85;;
11269;SDS011;5692;48.956;9.200;2024-02-26T04:30:20;300.60;;;286.20;;
11269;SDS011;5692;48.956;9.200;2024-02-26T04:32:46;295.85;;;281.70;;
11269;SDS011;5692;48.956;9.200;2024-02-26T04:35:12;290.25;;;276.35;;
11269;SDS011;5692;48.956;9.200;2024-02-26T04:37:41;289.92;;;276.05;;
11269;SDS011;5692;48.956;9.200;2024-02-26T04:40:07;308.02;;;293.30;;
11269;SDS011;5692;48.956;9.200;2024-02-26T04:42:33;310.92;;;296.08;;
11269;SDS011;5692;48.956;9.200;2024-02-26T04:44:59;307.10;;;292.45;;
11269;SDS011;5692;48.956;9.200;2024-02-26T04:47:27;295.45;;;281.35;;
11269;SDS011;5692;48.956;9.200;2024-02-26T04:49:56;296.80;;;282.60;;
11269;SDS011;5692;48.956;9.200;2024-02-26T04:52:22;316.73;;;301.60;;
11269;SDS011;5692;48.956;9.200;2024-02-26T04:54:51;312.60;;;297.67;;
11269;SDS011;5692;48.956;9.200;2024-02-26T04:57:17;276.35;;;263.15;;
11269;SDS011;5692;48.956;9.200;2024-02-26T04:59:43;295.30;;;281.17;;
11269;SDS011;5692;48.956;9.200;2024-02-26T05:02:11;290.38;;;276.48;;
11269;SDS011;5692;48.956;9.200;2024-02-26T05:04:37;300.42;;;286.08;;
11269;SDS011;5692;48.956;9.200;2024-02-26T05:07:05;312.25;;;297.33;;
11269;SDS011;5692;48.956;9.200;2024-02-26T05:09:32;308.98;;;294.20;;
11269;SDS011;5692;48.956;9.200;2024-02-26T05:12:00;306.20;;;291.58;;
11269;SDS011;5692;48.956;9.200;2024-02-26T05:14:26;300.55;;;286.20;;
11269;SDS011;5692;48.956;9.200;2024-02-26T05:16:53;298.55;;;284.27;;
11269;SDS011;5692;48.956;9.200;2024-02-26T05:19:21;302.90;;;288.42;;
11269;SDS011;5692;48.956;9.200;2024-02-26T05:21:47;320.53;;;305.20;;
11269;SDS011;5692;48.956;9.200;2024-02-26T05:24:22;313.98;;;298.98;;
11269;SDS011;5692;48.956;9.200;2024-02-26T05:26:48;319.63;;;304.37;;
11269;SDS011;5692;48.956;9.200;2024-02-26T05:29:16;316.20;;;301.10;;
11269;SDS011;5692;48.956;9.200;2024-02-26T05:31:42;307.65;;;292.95;;
11269;SDS011;5692;48.956;9.200;2024-02-26T05:34:08;335.85;;;319.80;;
11269;SDS011;5692;48.956;9.200;2024-02-26T05:36:34;316.77;;;301.67;;
11269;SDS011;5692;48.956;9.200;2024-02-26T05:39:00;338.00;;;321.87;;
11269;SDS011;5692;48.956;9.200;2024-02-26T05:41:27;336.42;;;320.35;;
11269;SDS011;5692;48.956;9.200;2024-02-26T05:43:53;328.60;;;312.90;;
11269;SDS011;5692;48.956;9.200;2024-02-26T05:46:19;323.03;;;307.60;;
11269;SDS011;5692;48.956;9.200;2024-02-26T05:48:52;316.42;;;301.30;;
11269;SDS011;5692;48.956;9.200;2024-02-26T05:51:18;301.65;;;287.25;;
11269;SDS011;5692;48.956;9.200;2024-02-26T05:53:44;318.10;;;302.90;;
11269;SDS011;5692;48.956;9.200;2024-02-26T05:56:10;305.83;;;291.23;;
11269;SDS011;5692;48.956;9.200;2024-02-26T05:58:36;309.02;;;294.23;;
11269;SDS011;5692;48.956;9.200;2024-02-26T06:01:03;301.67;;;287.25;;
11269;SDS011;5692;48.956;9.200;2024-02-26T06:03:29;289.67;;;275.85;;
11269;SDS011;5692;48.956;9.200;2024-02-26T06:05:55;310.08;;;295.27;;
11269;SDS011;5692;48.956;9.200;2024-02-26T06:08:21;309.55;;;294.75;;
11269;SDS011;5692;48.956;9.200;2024-02-26T06:10:49;312.85;;;297.92;;
11269;SDS011;5692;48.956;9.200;2024-02-26T06:13:15;304.83;;;290.23;;
11269;SDS011;5692;48.956;9.200;2024-02-26T06:15:43;303.95;;;289.45;;
11269;SDS011;5692;48.956;9.200;2024-02-26T06:18:10;261.80;;;249.30;;
11269;SDS011;5692;48.956;9.200;2024-02-26T06:20:43;270.63;;;257.70;;
11269;SDS011;5692;48.956;9.200;2024-02-26T06:23:11;264.40;;;251.75;;
11269;SDS011;5692;48.956;9.200;2024-02-26T06:25:37;251.32;;;239.32;;
11269;SDS011;5692;48.956;9.200;2024-02-26T06:28:03;321.10;;;305.77;;
11269;SDS011;5692;48.956;9.200;2024-02-26T06:30:29;325.90;;;310.35;;
11269;SDS011;5692;48.956;9.200;2024-02-26T06:32:56;311.33;;;296.48;;
11269;SDS011;5692;48.956;9.200;2024-02-26T06:35:22;317.40;;;302.23;;
11269;SDS011;5692;48.956;9.200;2024-02-26T06:37:48;302.55;;;288.08;;
11269;SDS011;5692;48.956;9.200;2024-02-26T06:40:18;320.92;;;305.60;;
11269;SDS011;5692;48.956;9.200;2024-02-26T06:42:44;322.08;;;306.67;;
11269;SDS011;5692;48.956;9.200;2024-02-26T06:45:10;318.95;;;303.70;;
11269;SDS011;5692;48.956;9.200;2024-02-26T06:47:48;305.90;;;291.27;;
11269;SDS011;5692;48.956;9.200;2024-02-26T06:50:22;327.67;;;312.02;;
11269;SDS011;5692;48.956;9.200;2024-02-26T06:52:54;324.80;;;309.30;;
11269;SDS011;5692;48.956;9.200;2024-02-26T06:55:27;300.37;;;286.00;;
11269;SDS011;5692;48.956;9.200;2024-02-26T06:57:55;306.38;;;291.75;;
11269;SDS011;5692;48.956;9.200;2024-02-26T07:00:21;318.23;;;303.03;;
11269;SDS011;5692;48.956;9.200;2024-02-26T07:02:47;320.33;;;305.03;;
11269;SDS011;5692;48.956;9.200;2024-02-26T07:05:13;312.70;;;297.80;;
11269;SDS011;5692;48.956;9.200;2024-02-26T07:07:38;308.83;;;294.07;;
11269;SDS011;5692;48.956;9.200;2024-02-26T07:10:05;316.17;;;301.08;;
11269;SDS011;5692;48.956;9.200;2024-02-26T07:12:33;297.20;;;283.00;;
11269;SDS011;5692;48.956;9.200;2024-02-26T07:15:00;302.90;;;288.42;;
11269;SDS011;5692;48.956;9.200;2024-02-26T07:17:27;298.90;;;284.60;;
11269;SDS011;5692;48.956;9.200;2024-02-26T07:20:01;300.48;;;286.13;;
11269;SDS011;5692;48.956;9.200;2024-02-26T07:22:30;308.15;;;293.45;;
11269;SDS011;5692;48.956;9.200;2024-02-26T07:24:57;299.13;;;284.83;;
11269;SDS011;5692;48.956;9.200;2024-02-26T07:27:23;300.38;;;286.02;;
11269;SDS011;5692;48.956;9.200;2024-02-26T07:29:49;320.15;;;304.85;;
11269;SDS011;5692;48.956;9.200;2024-02-26T07:32:17;315.00;;;299.95;;
11269;SDS011;5692;48.956;9.200;2024-02-26T07:34:47;314.48;;;299.45;;
11269;SDS011;5692;48.956;9.200;2024-02-26T07:37:15;302.35;;;287.90;;
11269;SDS011;5692;48.956;9.200;2024-02-26T07:39:42;311.63;;;296.75;;
11269;SDS011;5692;48.956;9.200;2024-02-26T07:42:08;331.35;;;315.52;;
11269;SDS011;5692;48.956;9.200;2024-02-26T07:44:34;319.48;;;304.20;;
11269;SDS011;5692;48.956;9.200;2024-02-26T07:47:03;317.73;;;302.55;;
11269;SDS011;5692;48.956;9.200;2024-02-26T07:49:36;313.90;;;298.90;;
11269;SDS011;5692;48.956;9.200;2024-02-26T07:52:03;306.00;;;291.35;;
11269;SDS011;5692;48.956;9.200;2024-02-26T07:54:41;306.38;;;291.77;;
11269;SDS011;5692;48.956;9.200;2024-02-26T07:57:07;296.45;;;282.25;;
11269;SDS011;5692;48.956;9.200;2024-02-26T07:59:33;304.25;;;289.75;;
11269;SDS011;5692;48.956;9.200;2024-02-26T08:02:00;316.75;;;301.63;;
11269;SDS011;5692;48.956;9.200;2024-02-26T08:04:28;316.10;;;301.00;;
11269;SDS011;5692;48.956;9.200;2024-02-26T08:06:54;319.60;;;304.30;;
11269;SDS011;5692;48.956;9.200;2024-02-26T08:09:20;318.35;;;303.15;;
11269;SDS011;5692;48.956;9.200;2024-02-26T08:11:46;317.73;;;302.55;;
11269;SDS011;5692;48.956;9.200;2024-02-26T08:14:12;314.95;;;299.90;;
11269;SDS011;5692;48.956;9.200;2024-02-26T08:16:38;313.88;;;298.88;;
11269;SDS011;5692;48.956;9.200;2024-02-26T08:19:05;316.17;;;301.10;;
11269;SDS011;5692;48.956;9.200;2024-02-26T08:21:33;307.45;;;292.75;;
11269;SDS011;5692;48.956;9.200;2024-02-26T08:24:02;322.30;;;306.90;;
11269;SDS011;5692;48.956;9.200;2024-02-26T08:26:29;323.23;;;307.77;;
11269;SDS011;5692;48.956;9.200;2024-02-26T08:28:55;315.88;;;300.77;;
11269;SDS011;5692;48.956;9.200;2024-02-26T08:31:22;305.65;;;291.05;;
11269;SDS011;5692;48.956;9.200;2024-02-26T08:33:50;308.15;;;293.45;;
11269;SDS011;5692;48.956;9.200;2024-02-26T08:36:23;310.83;;;295.98;;
11269;SDS011;5692;48.956;9.200;2024-02-26T08:38:56;323.50;;;308.05;;
11269;SDS011;5692;48.956;9.200;2024-02-26T08:41:22;311.92;;;297.02;;
11269;SDS011;5692;48.956;9.200;2024-02-26T08:43:55;316.13;;;301.02;;
11269;SDS011;5692;48.956;9.200;2024-02-26T08:46:26;321.58;;;306.20;;
11269;SDS011;5692;48.956;9.200;2024-02-26T08:48:52;306.33;;;291.70;;
11269;SDS011;5692;48.956;9.200;2024-02-26T08:51:18;326.70;;;311.10;;
11269;SDS011;5692;48.956;9.200;2024-02-26T08:53:48;307.50;;;292.80;;
11269;SDS011;5692;48.956;9.200;2024-02-26T08:56:15;334.17;;;318.23;;
11269;SDS011;5692;48.956;9.200;2024-02-26T08:58:42;357.90;;;340.80;;
11269;SDS011;5692;48.956;9.200;2024-02-26T09:01:13;353.77;;;336.88;;
11269;SDS011;5692;48.956;9.200;2024-02-26T09:03:42;348.30;;;331.67;;
11269;SDS011;5692;48.956;9.200;2024-02-26T09:06:14;328.23;;;312.52;;
11269;SDS011;5692;48.956;9.200;2024-02-26T09:08:40;340.95;;;324.65;;
11269;SDS011;5692;48.956;9.200;2024-02-26T09:11:09;340.58;;;324.27;;
11269;SDS011;5692;48.956;9.200;2024-02-26T09:13:35;340.25;;;323.98;;
11269;SDS011;5692;48.956;9.200;2024-02-26T09:16:03;337.42;;;321.33;;
11269;SDS011;5692;48.956;9.200;2024-02-26T09:18:38;333.65;;;317.75;;
11269;SDS011;5692;48.956;9.200;2024-02-26T09:21:13;344.85;;;328.38;;
11269;SDS011;5692;48.956;9.200;2024-02-26T09:23:39;331.67;;;315.85;;
11269;SDS011;5692;48.956;9.200;2024-02-26T09:26:05;336.33;;;320.23;;
11269;SDS011;5692;48.956;9.200;2024-02-26T09:28:34;360.65;;;343.45;;
11269;SDS011;5692;48.956;9.200;2024-02-26T09:31:04;292.20;;;278.20;;
11269;SDS011;5692;48.956;9.200;2024-02-26T09:33:31;344.02;;;327.63;;
11269;SDS011;5692;48.956;9.200;2024-02-26T09:35:58;358.85;;;341.75;;
11269;SDS011;5692;48.956;9.200;2024-02-26T09:38:25;340.77;;;324.48;;
11269;SDS011;5692;48.956;9.200;2024-02-26T09:40:56;354.85;;;337.92;;
11269;SDS011;5692;48.956;9.200;2024-02-26T09:43:22;336.98;;;320.88;;
11269;SDS011;5692;48.956;9.200;2024-02-26T09:45:54;348.75;;;332.08;;
11269;SDS011;5692;48.956;9.200;2024-02-26T09:48:23;338.77;;;322.58;;
11269;SDS011;5692;48.956;9.200;2024-02-26T09:50:50;341.88;;;325.55;;
11269;SDS011;5692;48.956;9.200;2024-02-26T09:53:16;350.10;;;333.40;;
11269;SDS011;5692;48.956;9.200;2024-02-26T09:55:43;345.60;;;329.10;;
11269;SDS011;5692;48.956;9.200;2024-02-26T09:58:09;331.95;;;316.10;;
11269;SDS011;5692;48.956;9.200;2024-02-26T10:00:37;330.73;;;314.92;;
11269;SDS011;5692;48.956;9.200;2024-02-26T10:03:22;340.30;;;324.05;;
11269;SDS011;5692;48.956;9.200;2024-02-26T10:05:49;341.13;;;324.85;;
11269;SDS011;5692;48.956;9.200;2024-02-26T10:08:23;323.67;;;308.20;;
11269;SDS011;5692;48.956;9.200;2024-02-26T10:10:50;345.63;;;329.13;;
11269;SDS011;5692;48.956;9.200;2024-02-26T10:13:24;332.42;;;316.58;;
11269;SDS011;5692;48.956;9.200;2024-02-26T10:15:50;326.88;;;311.27;;
11269;SDS011;5692;48.956;9.200;2024-02-26T10:18:22;337.42;;;321.30;;
11269;SDS011;5692;48.956;9.200;2024-02-26T10:21:11;329.05;;;313.33;;
11269;SDS011;5692;48.956;9.200;2024-02-26T10:23:39;352.42;;;335.60;;
11269;SDS011;5692;48.956;9.200;2024-02-26T10:26:06;347.05;;;330.48;;
11269;SDS011;5692;48.956;9.200;2024-02-26T10:28:37;347.67;;;331.08;;
11269;SDS011;5692;48.956;9.200;2024-02-26T10:31:06;339.52;;;323.33;;
11269;SDS011;5692;48.956;9.200;2024-02-26T10:33:33;358.40;;;341.25;;
11269;SDS011;5692;48.956;9.200;2024-02-26T10:36:08;375.08;;;357.17;;
11269;SDS011;5692;48.956;9.200;2024-02-26T10:38:37;408.92;;;389.40;;
11269;SDS011;5692;48.956;9.200;2024-02-26T10:41:04;403.25;;;384.00;;
11269;SDS011;5692;48.956;9.200;2024-02-26T10:43:31;381.77;;;363.58;;
11269;SDS011;5692;48.956;9.200;2024-02-26T10:49:08;409.60;;;390.05;;
11269;SDS011;5692;48.956;9.200;2024-02-26T10:51:38;408.92;;;389.42;;
11269;SDS011;5692;48.956;9.200;2024-02-26T10:54:15;397.52;;;378.58;;
11269;SDS011;5692;48.956;9.200;2024-02-26T10:56:48;414.83;;;395.02;;
11269;SDS011;5692;48.956;9.200;2024-02-26T10:59:20;430.45;;;409.90;;
11269;SDS011;5692;48.956;9.200;2024-02-26T11:01:48;443.77;;;422.58;;
11269;SDS011;5692;48.956;9.200;2024-02-26T11:04:23;443.05;;;421.90;;
11269;SDS011;5692;48.956;9.200;2024-02-26T11:06:52;432.55;;;411.90;;
11269;SDS011;5692;48.956;9.200;2024-02-26T11:09:23;438.08;;;417.17;;
11269;SDS011;5692;48.956;9.200;2024-02-26T11:11:59;455.30;;;433.60;;
11269;SDS011;5692;48.956;9.200;2024-02-26T11:14:26;445.98;;;424.70;;
11269;SDS011;5692;48.956;9.200;2024-02-26T11:17:01;440.13;;;419.13;;
11269;SDS011;5692;48.956;9.200;2024-02-26T11:19:28;464.00;;;441.88;;
11269;SDS011;5692;48.956;9.200;2024-02-26T11:21:58;458.25;;;436.35;;
11269;SDS011;5692;48.956;9.200;2024-02-26T11:24:29;457.40;;;435.58;;
11269;SDS011;5692;48.956;9.200;2024-02-26T11:26:59;450.40;;;428.90;;
11269;SDS011;5692;48.956;9.200;2024-02-26T11:29:37;461.10;;;439.10;;
11269;SDS011;5692;48.956;9.200;2024-02-26T11:32:08;460.73;;;438.73;;
11269;SDS011;5692;48.956;9.200;2024-02-26T11:34:46;461.45;;;439.42;;
11269;SDS011;5692;48.956;9.200;2024-02-26T11:37:14;442.67;;;421.55;;
11269;SDS011;5692;48.956;9.200;2024-02-26T11:39:42;453.08;;;431.48;;
11269;SDS011;5692;48.956;9.200;2024-02-26T11:42:15;454.38;;;432.70;;
11269;SDS011;5692;48.956;9.200;2024-02-26T11:44:49;460.90;;;438.90;;
11269;SDS011;5692;48.956;9.200;2024-02-26T11:47:19;450.50;;;429.00;;
11269;SDS011;5692;48.956;9.200;2024-02-26T11:49:53;466.38;;;444.13;;
11269;SDS011;5692;48.956;9.200;2024-02-26T11:52:19;458.30;;;436.42;;
11269;SDS011;5692;48.956;9.200;2024-02-26T11:54:46;466.95;;;444.67;;
11269;SDS011;5692;48.956;9.200;2024-02-26T11:57:38;474.25;;;451.63;;
11269;SDS011;5692;48.956;9.200;2024-02-26T12:02:46;470.92;;;448.42;;
11269;SDS011;5692;48.956;9.200;2024-02-26T12:05:23;476.20;;;453.48;;
11269;SDS011;5692;48.956;9.200;2024-02-26T12:07:53;478.90;;;456.05;;
11269;SDS011;5692;48.956;9.200;2024-02-26T12:13:05;474.67;;;452.02;;
11269;SDS011;5692;48.956;9.200;2024-02-26T12:15:33;489.83;;;466.42;;
11269;SDS011;5692;48.956;9.200;2024-02-26T12:18:02;467.55;;;445.25;;
11269;SDS011;5692;48.956;9.200;2024-02-26T12:23:26;491.88;;;468.38;;
11269;SDS011;5692;48.956;9.200;2024-02-26T12:25:54;486.15;;;462.95;;
11269;SDS011;5692;48.956;9.200;2024-02-26T12:28:27;497.73;;;473.98;;
11269;SDS011;5692;48.956;9.200;2024-02-26T12:30:56;469.67;;;447.27;;
11269;SDS011;5692;48.956;9.200;2024-02-26T12:33:25;463.08;;;440.98;;
11269;SDS011;5692;48.956;9.200;2024-02-26T12:35:51;460.65;;;438.67;;
11269;SDS011;5692;48.956;9.200;2024-02-26T12:38:18;472.77;;;450.23;;
11269;SDS011;5692;48.956;9.200;2024-02-26T12:40:46;471.55;;;449.05;;
11269;SDS011;5692;48.956;9.200;2024-02-26T12:43:14;455.30;;;433.58;;
11269;SDS011;5692;48.956;9.200;2024-02-26T12:45:42;467.17;;;444.88;;
11269;SDS011;5692;48.956;9.200;2024-02-26T12:48:12;467.10;;;444.80;;
11269;SDS011;5692;48.956;9.200;2024-02-26T12:50:39;453.58;;;431.92;;
11269;SDS011;5692;48.956;9.200;2024-02-26T12:53:04;472.07;;;449.53;;
11269;SDS011;5692;48.956;9.200;2024-02-26T12:55:31;460.48;;;438.48;;
11269;SDS011;5692;48.956;9.200;2024-02-26T12:57:59;452.38;;;430.77;;
11269;SDS011;5692;48.956;9.200;2024-02-26T13:00:26;471.98;;;449.45;;
11269;SDS011;5692;48.956;9.200;2024-02-26T13:02:56;470.85;;;448.35;;
11269;SDS011;5692;48.956;9.200;2024-02-26T13:05:32;465.00;;;442.80;;
11269;SDS011;5692;48.956;9.200;2024-02-26T13:07:59;473.40;;;450.83;;
11269;SDS011;5692;48.956;9.200;2024-02-26T13:10:27;480.80;;;457.88;;
11269;SDS011;5692;48.956;9.200;2024-02-26T13:12:54;457.25;;;435.45;;
11269;SDS011;5692;48.956;9.200;2024-02-26T13:15:22;483.65;;;460.58;;
11269;SDS011;5692;48.956;9.200;2024-02-26T13:17:49;483.02;;;459.98;;
11269;SDS011;5692;48.956;9.200;2024-02-26T13:20:27;484.65;;;461.50;;
11269;SDS011;5692;48.956;9.200;2024-02-26T13:23:03;479.92;;;457.02;;
11269;SDS011;5692;48.956;9.200;2024-02-26T13:25:33;479.70;;;456.80;;
11269;SDS011;5692;48.956;9.200;2024-02-26T13:28:09;481.55;;;458.58;;
11269;SDS011;5692;48.956;9.200;2024-02-26T13:30:55;477.23;;;454.48;;
11269;SDS011;5692;48.956;9.200;2024-02-26T13:33:28;462.73;;;440.65;;
11269;SDS011;5692;48.956;9.200;2024-02-26T13:35:55;468.73;;;446.35;;
11269;SDS011;5692;48.956;9.200;2024-02-26T13:38:21;481.23;;;458.27;;
11269;SDS011;5692;48.956;9.200;2024-02-26T13:40:48;494.00;;;470.42;;
11269;SDS011;5692;48.956;9.200;2024-02-26T13:43:17;499.60;;;475.77;;
11269;SDS011;5692;48.956;9.200;2024-02-26T13:45:44;494.75;;;471.13;;
11269;SDS011;5692;48.956;9.200;2024-02-26T13:48:11;483.67;;;460.58;;
11269;SDS011;5692;48.956;9.200;2024-02-26T13:50:39;475.52;;;452.83;;
11269;SDS011;5692;48.956;9.200;2024-02-26T13:53:10;485.73;;;462.52;;
11269;SDS011;5692;48.956;9.200;2024-02-26T13:55:40;485.27;;;462.10;;
11269;SDS011;5692;48.956;9.200;2024-02-26T13:58:07;491.90;;;468.42;;
11269;SDS011;5692;48.956;9.200;2024-02-26T14:00:36;480.05;;;457.15;;
11269;SDS011;5692;48.956;9.200;2024-02-26T14:03:02;492.87;;;469.37;;
11269;SDS011;5692;48.956;9.200;2024-02-26T14:05:28;471.70;;;449.20;;
11269;SDS011;5692;48.956;9.200;2024-02-26T14:07:55;487.77;;;464.48;;
11269;SDS011;5692;48.956;9.200;2024-02-26T14:10:28;485.33;;;462.15;;
11269;SDS011;5692;48.956;9.200;2024-02-26T14:13:02;504.85;;;480.75;;
11269;SDS011;5692;48.956;9.200;2024-02-26T14:15:28;501.98;;;478.02;;
11269;SDS011;5692;48.956;9.200;2024-02-26T14:17:54;497.92;;;474.15;;
11269;SDS011;5692;48.956;9.200;2024-02-26T14:20:24;488.90;;;465.58;;
11269;SDS011;5692;48.956;9.200;2024-02-26T14:22:50;512.80;;;488.33;;
11269;SDS011;5692;48.956;9.200;2024-02-26T14:25:22;491.48;;;468.00;;